sensor_id;sensor_type;location;lat;lon;timestamp;temperature;humidity
22917;DHT22;11624;53.250;7.456;2022-12-18T00:00:04;1.02;64.08
22917;DHT22;11624;53.250;7.456;2022-12-18T00:02:39;0.98;64.69
22917;DHT22;11624;53.250;7.456;2022-12-18T00:05:09;1.04;64.41
22917;DHT22;11624;53.250;7.456;2022-12-18T00:07:37;0.92;64.94
22917;DHT22;11624;53.250;7.456;2022-12-18T00:10:06;0.91;64.75
22917;DHT22;11624;53.250;7.456;2022-12-18T00:12:34;0.97;64.43
22917;DHT22;11624;53.250;7.456;2022-12-18T00:15:03;1.04;63.94
22917;DHT22;11624;53.250;7.456;2022-12-18T00:17:31;1.04;64.00
22917;DHT22;11624;53.250;7.456;2022-12-18T00:19:59;0.96;64.06
22917;DHT22;11624;53.250;7.456;2022-12-18T00:22:28;1.03;63.68
22917;DHT22;11624;53.250;7.456;2022-12-18T00:24:56;0.87;64.28
22917;DHT22;11624;53.250;7.456;2022-12-18T00:27:24;0.69;64.63
22917;DHT22;11624;53.250;7.456;2022-12-18T00:29:52;0.68;64.79
22917;DHT22;11624;53.250;7.456;2022-12-18T00:32:20;0.86;64.44
22917;DHT22;11624;53.250;7.456;2022-12-18T00:34:49;0.65;64.37
22917;DHT22;11624;53.250;7.456;2022-12-18T00:37:17;0.63;64.33
22917;DHT22;11624;53.250;7.456;2022-12-18T00:39:51;0.82;63.73
22917;DHT22;11624;53.250;7.456;2022-12-18T00:42:19;0.78;64.21
22917;DHT22;11624;53.250;7.456;2022-12-18T00:45:05;0.75;63.95
22917;DHT22;11624;53.250;7.456;2022-12-18T00:47:39;0.66;64.30
22917;DHT22;11624;53.250;7.456;2022-12-18T00:50:08;0.45;64.88
22917;DHT22;11624;53.250;7.456;2022-12-18T00:52:36;0.68;64.21
22917;DHT22;11624;53.250;7.456;2022-12-18T00:55:07;0.80;63.71
22917;DHT22;11624;53.250;7.456;2022-12-18T00:57:35;0.84;63.27
22917;DHT22;11624;53.250;7.456;2022-12-18T01:00:05;0.66;63.74
22917;DHT22;11624;53.250;7.456;2022-12-18T01:02:34;0.66;63.41
22917;DHT22;11624;53.250;7.456;2022-12-18T01:05:02;0.63;63.47
22917;DHT22;11624;53.250;7.456;2022-12-18T01:07:31;0.64;63.53
22917;DHT22;11624;53.250;7.456;2022-12-18T01:09:59;0.71;63.38
22917;DHT22;11624;53.250;7.456;2022-12-18T01:12:28;0.25;64.40
22917;DHT22;11624;53.250;7.456;2022-12-18T01:14:56;0.29;64.55
22917;DHT22;11624;53.250;7.456;2022-12-18T01:17:24;0.46;64.18
22917;DHT22;11624;53.250;7.456;2022-12-18T01:19:52;0.49;63.95
22917;DHT22;11624;53.250;7.456;2022-12-18T01:22:20;0.50;63.50
22917;DHT22;11624;53.250;7.456;2022-12-18T01:24:48;0.53;63.37
22917;DHT22;11624;53.250;7.456;2022-12-18T01:27:16;0.40;63.18
22917;DHT22;11624;53.250;7.456;2022-12-18T01:29:47;0.44;63.49
22917;DHT22;11624;53.250;7.456;2022-12-18T01:32:18;0.33;63.71
22917;DHT22;11624;53.250;7.456;2022-12-18T01:34:46;0.29;63.88
22917;DHT22;11624;53.250;7.456;2022-12-18T01:37:14;0.38;63.53
22917;DHT22;11624;53.250;7.456;2022-12-18T01:39:42;0.45;63.24
22917;DHT22;11624;53.250;7.456;2022-12-18T01:42:13;0.46;62.95
22917;DHT22;11624;53.250;7.456;2022-12-18T01:45:02;0.35;63.02
22917;DHT22;11624;53.250;7.456;2022-12-18T01:47:34;0.24;63.27
22917;DHT22;11624;53.250;7.456;2022-12-18T01:50:07;0.31;63.10
22917;DHT22;11624;53.250;7.456;2022-12-18T01:52:36;0.25;63.60
22917;DHT22;11624;53.250;7.456;2022-12-18T01:55:06;0.20;63.50
22917;DHT22;11624;53.250;7.456;2022-12-18T01:57:34;0.14;63.31
22917;DHT22;11624;53.250;7.456;2022-12-18T02:00:07;0.24;63.07
22917;DHT22;11624;53.250;7.456;2022-12-18T02:02:39;0.22;63.09
22917;DHT22;11624;53.250;7.456;2022-12-18T02:05:08;0.21;62.73
22917;DHT22;11624;53.250;7.456;2022-12-18T02:07:43;0.14;63.05
22917;DHT22;11624;53.250;7.456;2022-12-18T02:10:19;-0.02;63.56
22917;DHT22;11624;53.250;7.456;2022-12-18T02:13:02;0.13;63.11
22917;DHT22;11624;53.250;7.456;2022-12-18T02:15:39;0.19;62.60
22917;DHT22;11624;53.250;7.456;2022-12-18T02:18:11;0.07;62.92
22917;DHT22;11624;53.250;7.456;2022-12-18T02:20:44;0.08;62.71
22917;DHT22;11624;53.250;7.456;2022-12-18T02:23:24;-0.01;62.80
22917;DHT22;11624;53.250;7.456;2022-12-18T02:26:06;0.02;62.64
22917;DHT22;11624;53.250;7.456;2022-12-18T02:28:40;-0.03;62.39
22917;DHT22;11624;53.250;7.456;2022-12-18T02:31:13;-0.17;62.40
22917;DHT22;11624;53.250;7.456;2022-12-18T02:33:44;-0.11;62.80
22917;DHT22;11624;53.250;7.456;2022-12-18T02:36:13;-0.19;62.96
22917;DHT22;11624;53.250;7.456;2022-12-18T02:38:45;-0.23;63.10
22917;DHT22;11624;53.250;7.456;2022-12-18T02:41:17;-0.37;63.07
22917;DHT22;11624;53.250;7.456;2022-12-18T02:43:55;-0.36;62.87
22917;DHT22;11624;53.250;7.456;2022-12-18T02:46:28;-0.29;63.06
22917;DHT22;11624;53.250;7.456;2022-12-18T02:49:12;-0.19;62.30
22917;DHT22;11624;53.250;7.456;2022-12-18T02:51:50;-0.20;62.29
22917;DHT22;11624;53.250;7.456;2022-12-18T02:54:27;-0.17;62.12
22917;DHT22;11624;53.250;7.456;2022-12-18T02:57:08;-0.31;62.35
22917;DHT22;11624;53.250;7.456;2022-12-18T02:59:42;-0.30;62.34
22917;DHT22;11624;53.250;7.456;2022-12-18T03:02:19;-0.35;62.25
22917;DHT22;11624;53.250;7.456;2022-12-18T03:04:57;-0.44;62.02
22917;DHT22;11624;53.250;7.456;2022-12-18T03:07:32;-0.40;62.05
22917;DHT22;11624;53.250;7.456;2022-12-18T03:10:05;-0.45;62.43
22917;DHT22;11624;53.250;7.456;2022-12-18T03:12:40;-0.50;62.49
22917;DHT22;11624;53.250;7.456;2022-12-18T03:15:13;-0.42;62.21
22917;DHT22;11624;53.250;7.456;2022-12-18T03:17:49;-0.41;61.83
22917;DHT22;11624;53.250;7.456;2022-12-18T03:20:21;-0.61;61.81
22917;DHT22;11624;53.250;7.456;2022-12-18T03:22:57;-0.60;62.26
22917;DHT22;11624;53.250;7.456;2022-12-18T03:25:28;-0.59;62.30
22917;DHT22;11624;53.250;7.456;2022-12-18T03:28:00;-0.70;62.64
22917;DHT22;11624;53.250;7.456;2022-12-18T03:30:31;-0.68;62.52
22917;DHT22;11624;53.250;7.456;2022-12-18T03:33:05;-0.59;62.24
22917;DHT22;11624;53.250;7.456;2022-12-18T03:35:39;-0.68;62.29
22917;DHT22;11624;53.250;7.456;2022-12-18T03:38:08;-0.79;62.44
22917;DHT22;11624;53.250;7.456;2022-12-18T03:40:51;-0.84;62.59
22917;DHT22;11624;53.250;7.456;2022-12-18T03:43:33;-0.81;62.47
22917;DHT22;11624;53.250;7.456;2022-12-18T03:46:06;-0.85;62.44
22917;DHT22;11624;53.250;7.456;2022-12-18T03:48:40;-0.86;62.60
22917;DHT22;11624;53.250;7.456;2022-12-18T03:51:16;-0.87;62.52
22917;DHT22;11624;53.250;7.456;2022-12-18T03:53:52;-0.99;63.31
22917;DHT22;11624;53.250;7.456;2022-12-18T03:56:29;-0.89;62.73
22917;DHT22;11624;53.250;7.456;2022-12-18T03:59:02;-0.85;62.57
22917;DHT22;11624;53.250;7.456;2022-12-18T04:01:34;-0.98;62.68
22917;DHT22;11624;53.250;7.456;2022-12-18T04:04:04;-1.05;62.65
22917;DHT22;11624;53.250;7.456;2022-12-18T04:06:37;-1.01;62.67
22917;DHT22;11624;53.250;7.456;2022-12-18T04:09:08;-1.11;62.48
22917;DHT22;11624;53.250;7.456;2022-12-18T04:11:42;-1.15;62.72
22917;DHT22;11624;53.250;7.456;2022-12-18T04:14:14;-1.30;63.16
22917;DHT22;11624;53.250;7.456;2022-12-18T04:16:47;-1.15;63.05
22917;DHT22;11624;53.250;7.456;2022-12-18T04:19:18;-1.17;63.33
22917;DHT22;11624;53.250;7.456;2022-12-18T04:21:49;-1.15;63.09
22917;DHT22;11624;53.250;7.456;2022-12-18T04:24:17;-1.24;62.97
22917;DHT22;11624;53.250;7.456;2022-12-18T04:26:57;-1.20;62.91
22917;DHT22;11624;53.250;7.456;2022-12-18T04:29:32;-1.05;62.66
22917;DHT22;11624;53.250;7.456;2022-12-18T04:32:00;-1.05;62.71
22917;DHT22;11624;53.250;7.456;2022-12-18T04:34:30;-1.02;62.49
22917;DHT22;11624;53.250;7.456;2022-12-18T04:36:58;-1.13;62.37
22917;DHT22;11624;53.250;7.456;2022-12-18T04:39:26;-1.08;62.62
22917;DHT22;11624;53.250;7.456;2022-12-18T04:41:59;-1.08;62.10
22917;DHT22;11624;53.250;7.456;2022-12-18T04:44:27;-1.23;62.71
22917;DHT22;11624;53.250;7.456;2022-12-18T04:46:57;-1.20;62.47
22917;DHT22;11624;53.250;7.456;2022-12-18T04:49:25;-1.19;62.24
22917;DHT22;11624;53.250;7.456;2022-12-18T04:51:53;-1.25;62.20
22917;DHT22;11624;53.250;7.456;2022-12-18T04:54:21;-1.26;61.99
22917;DHT22;11624;53.250;7.456;2022-12-18T04:56:49;-1.44;61.99
22917;DHT22;11624;53.250;7.456;2022-12-18T04:59:18;-1.42;62.23
22917;DHT22;11624;53.250;7.456;2022-12-18T05:01:46;-1.39;62.22
22917;DHT22;11624;53.250;7.456;2022-12-18T05:04:15;-1.44;62.27
22917;DHT22;11624;53.250;7.456;2022-12-18T05:06:44;-1.53;62.50
22917;DHT22;11624;53.250;7.456;2022-12-18T05:09:12;-1.48;62.10
22917;DHT22;11624;53.250;7.456;2022-12-18T05:11:40;-1.50;62.27
22917;DHT22;11624;53.250;7.456;2022-12-18T05:14:08;-1.48;62.28
22917;DHT22;11624;53.250;7.456;2022-12-18T05:16:36;-1.62;62.64
22917;DHT22;11624;53.250;7.456;2022-12-18T05:19:04;-1.58;62.33
22917;DHT22;11624;53.250;7.456;2022-12-18T05:21:33;-1.67;62.62
22917;DHT22;11624;53.250;7.456;2022-12-18T05:24:01;-1.57;62.00
22917;DHT22;11624;53.250;7.456;2022-12-18T05:26:30;-1.56;62.18
22917;DHT22;11624;53.250;7.456;2022-12-18T05:28:58;-1.56;61.77
22917;DHT22;11624;53.250;7.456;2022-12-18T05:31:26;-1.57;61.60
22917;DHT22;11624;53.250;7.456;2022-12-18T05:33:54;-1.54;61.85
22917;DHT22;11624;53.250;7.456;2022-12-18T05:36:22;-1.58;61.90
22917;DHT22;11624;53.250;7.456;2022-12-18T05:38:51;-1.45;61.54
22917;DHT22;11624;53.250;7.456;2022-12-18T05:41:19;-1.47;61.38
22917;DHT22;11624;53.250;7.456;2022-12-18T05:43:47;-1.49;61.41
22917;DHT22;11624;53.250;7.456;2022-12-18T05:46:17;-1.59;61.63
22917;DHT22;11624;53.250;7.456;2022-12-18T05:48:45;-1.59;61.25
22917;DHT22;11624;53.250;7.456;2022-12-18T05:51:17;-1.69;61.64
22917;DHT22;11624;53.250;7.456;2022-12-18T05:53:46;-1.82;61.73
22917;DHT22;11624;53.250;7.456;2022-12-18T05:56:18;-1.79;61.88
22917;DHT22;11624;53.250;7.456;2022-12-18T05:58:47;-1.68;61.71
22917;DHT22;11624;53.250;7.456;2022-12-18T06:01:17;-1.62;61.61
22917;DHT22;11624;53.250;7.456;2022-12-18T06:03:45;-1.68;61.66
22917;DHT22;11624;53.250;7.456;2022-12-18T06:06:14;-1.74;61.57
22917;DHT22;11624;53.250;7.456;2022-12-18T06:08:43;-1.82;62.15
22917;DHT22;11624;53.250;7.456;2022-12-18T06:11:12;-1.72;61.63
22917;DHT22;11624;53.250;7.456;2022-12-18T06:13:42;-1.80;61.81
22917;DHT22;11624;53.250;7.456;2022-12-18T06:16:10;-1.77;61.06
22917;DHT22;11624;53.250;7.456;2022-12-18T06:18:38;-1.71;61.26
22917;DHT22;11624;53.250;7.456;2022-12-18T06:21:06;-1.67;61.27
22917;DHT22;11624;53.250;7.456;2022-12-18T06:23:34;-1.72;61.32
22917;DHT22;11624;53.250;7.456;2022-12-18T06:26:06;-1.77;61.31
22917;DHT22;11624;53.250;7.456;2022-12-18T06:28:34;-1.91;61.50
22917;DHT22;11624;53.250;7.456;2022-12-18T06:31:05;-1.80;61.28
22917;DHT22;11624;53.250;7.456;2022-12-18T06:33:33;-1.86;60.75
22917;DHT22;11624;53.250;7.456;2022-12-18T06:36:03;-1.87;60.96
22917;DHT22;11624;53.250;7.456;2022-12-18T06:38:33;-1.80;60.96
22917;DHT22;11624;53.250;7.456;2022-12-18T06:41:06;-1.87;60.93
22917;DHT22;11624;53.250;7.456;2022-12-18T06:43:34;-1.88;60.87
22917;DHT22;11624;53.250;7.456;2022-12-18T06:46:05;-1.97;60.96
22917;DHT22;11624;53.250;7.456;2022-12-18T06:48:34;-2.08;61.12
22917;DHT22;11624;53.250;7.456;2022-12-18T06:51:02;-2.04;60.86
22917;DHT22;11624;53.250;7.456;2022-12-18T06:53:31;-1.99;60.80
22917;DHT22;11624;53.250;7.456;2022-12-18T06:56:00;-2.13;61.28
22917;DHT22;11624;53.250;7.456;2022-12-18T06:58:35;-2.14;61.37
22917;DHT22;11624;53.250;7.456;2022-12-18T07:01:06;-2.15;60.98
22917;DHT22;11624;53.250;7.456;2022-12-18T07:03:35;-2.29;61.20
22917;DHT22;11624;53.250;7.456;2022-12-18T07:06:04;-2.21;61.53
22917;DHT22;11624;53.250;7.456;2022-12-18T07:08:33;-2.21;61.67
22917;DHT22;11624;53.250;7.456;2022-12-18T07:11:03;-2.06;61.15
22917;DHT22;11624;53.250;7.456;2022-12-18T07:13:31;-2.20;61.26
22917;DHT22;11624;53.250;7.456;2022-12-18T07:16:06;-2.28;61.02
22917;DHT22;11624;53.250;7.456;2022-12-18T07:18:44;-2.28;61.86
22917;DHT22;11624;53.250;7.456;2022-12-18T07:21:15;-2.13;61.48
22917;DHT22;11624;53.250;7.456;2022-12-18T07:23:43;-2.24;61.79
22917;DHT22;11624;53.250;7.456;2022-12-18T07:28:47;-2.37;61.70
22917;DHT22;11624;53.250;7.456;2022-12-18T07:31:19;-2.27;61.38
22917;DHT22;11624;53.250;7.456;2022-12-18T07:33:49;-2.24;61.78
22917;DHT22;11624;53.250;7.456;2022-12-18T07:36:22;-2.10;61.26
22917;DHT22;11624;53.250;7.456;2022-12-18T07:38:51;-2.10;61.50
22917;DHT22;11624;53.250;7.456;2022-12-18T07:41:20;-2.06;61.38
22917;DHT22;11624;53.250;7.456;2022-12-18T07:43:48;-1.98;61.13
22917;DHT22;11624;53.250;7.456;2022-12-18T07:46:18;-2.09;61.43
22917;DHT22;11624;53.250;7.456;2022-12-18T07:48:46;-2.07;61.33
22917;DHT22;11624;53.250;7.456;2022-12-18T07:51:16;-2.06;61.35
22917;DHT22;11624;53.250;7.456;2022-12-18T07:53:45;-2.08;61.15
22917;DHT22;11624;53.250;7.456;2022-12-18T07:56:18;-2.01;61.38
22917;DHT22;11624;53.250;7.456;2022-12-18T07:58:57;-1.97;61.05
22917;DHT22;11624;53.250;7.456;2022-12-18T08:01:29;-1.87;61.14
22917;DHT22;11624;53.250;7.456;2022-12-18T08:03:57;-1.90;61.10
22917;DHT22;11624;53.250;7.456;2022-12-18T08:06:25;-1.77;61.09
22917;DHT22;11624;53.250;7.456;2022-12-18T08:08:54;-1.74;61.02
22917;DHT22;11624;53.250;7.456;2022-12-18T08:11:24;-1.83;61.56
22917;DHT22;11624;53.250;7.456;2022-12-18T08:13:53;-1.78;61.76
22917;DHT22;11624;53.250;7.456;2022-12-18T08:16:22;-1.69;61.71
22917;DHT22;11624;53.250;7.456;2022-12-18T08:18:53;-1.60;61.29
22917;DHT22;11624;53.250;7.456;2022-12-18T08:21:22;-1.75;61.78
22917;DHT22;11624;53.250;7.456;2022-12-18T08:23:52;-1.55;61.83
22917;DHT22;11624;53.250;7.456;2022-12-18T08:26:21;-1.53;61.46
22917;DHT22;11624;53.250;7.456;2022-12-18T08:28:49;-1.39;61.32
22917;DHT22;11624;53.250;7.456;2022-12-18T08:31:18;-1.43;61.47
22917;DHT22;11624;53.250;7.456;2022-12-18T08:33:48;-1.25;61.02
22917;DHT22;11624;53.250;7.456;2022-12-18T08:36:18;-1.29;60.52
22917;DHT22;11624;53.250;7.456;2022-12-18T08:38:47;-1.27;60.83
22917;DHT22;11624;53.250;7.456;2022-12-18T08:41:16;-1.19;61.15
22917;DHT22;11624;53.250;7.456;2022-12-18T08:43:45;-1.43;61.42
22917;DHT22;11624;53.250;7.456;2022-12-18T08:46:35;-1.28;61.58
22917;DHT22;11624;53.250;7.456;2022-12-18T08:49:05;-1.04;61.07
22917;DHT22;11624;53.250;7.456;2022-12-18T08:51:35;-0.99;60.70
22917;DHT22;11624;53.250;7.456;2022-12-18T08:54:04;-1.02;61.02
22917;DHT22;11624;53.250;7.456;2022-12-18T08:56:32;-0.95;60.69
22917;DHT22;11624;53.250;7.456;2022-12-18T08:59:01;-0.86;60.14
22917;DHT22;11624;53.250;7.456;2022-12-18T09:01:29;-1.10;60.52
22917;DHT22;11624;53.250;7.456;2022-12-18T09:03:59;-0.72;60.97
22917;DHT22;11624;53.250;7.456;2022-12-18T09:06:27;-0.60;60.42
22917;DHT22;11624;53.250;7.456;2022-12-18T09:08:57;-0.38;60.49
22917;DHT22;11624;53.250;7.456;2022-12-18T09:11:27;-0.50;60.12
22917;DHT22;11624;53.250;7.456;2022-12-18T09:13:56;-0.34;59.91
22917;DHT22;11624;53.250;7.456;2022-12-18T09:16:26;-0.20;59.85
22917;DHT22;11624;53.250;7.456;2022-12-18T09:18:59;-0.35;59.93
22917;DHT22;11624;53.250;7.456;2022-12-18T09:21:28;-0.38;60.62
22917;DHT22;11624;53.250;7.456;2022-12-18T09:24:00;-0.40;60.83
22917;DHT22;11624;53.250;7.456;2022-12-18T09:26:29;-0.09;60.25
22917;DHT22;11624;53.250;7.456;2022-12-18T09:28:57;-0.14;59.80
22917;DHT22;11624;53.250;7.456;2022-12-18T09:31:25;-0.19;59.49
22917;DHT22;11624;53.250;7.456;2022-12-18T09:33:54;0.24;60.08
22917;DHT22;11624;53.250;7.456;2022-12-18T09:36:23;0.37;59.74
22917;DHT22;11624;53.250;7.456;2022-12-18T09:38:51;0.45;59.54
22917;DHT22;11624;53.250;7.456;2022-12-18T09:41:33;0.49;58.84
22917;DHT22;11624;53.250;7.456;2022-12-18T09:44:11;0.63;59.28
22917;DHT22;11624;53.250;7.456;2022-12-18T09:46:43;0.79;58.95
22917;DHT22;11624;53.250;7.456;2022-12-18T09:49:15;0.76;58.86
22917;DHT22;11624;53.250;7.456;2022-12-18T09:51:50;0.48;58.87
22917;DHT22;11624;53.250;7.456;2022-12-18T09:54:23;0.72;59.09
22917;DHT22;11624;53.250;7.456;2022-12-18T09:56:55;0.86;58.66
22917;DHT22;11624;53.250;7.456;2022-12-18T09:59:25;1.16;58.22
22917;DHT22;11624;53.250;7.456;2022-12-18T10:01:56;0.96;57.78
22917;DHT22;11624;53.250;7.456;2022-12-18T10:04:29;1.18;57.64
22917;DHT22;11624;53.250;7.456;2022-12-18T10:07:03;1.27;57.65
22917;DHT22;11624;53.250;7.456;2022-12-18T10:09:38;1.48;57.60
22917;DHT22;11624;53.250;7.456;2022-12-18T10:12:18;1.72;56.69
22917;DHT22;11624;53.250;7.456;2022-12-18T10:14:53;1.82;56.81
22917;DHT22;11624;53.250;7.456;2022-12-18T10:17:30;1.87;56.66
22917;DHT22;11624;53.250;7.456;2022-12-18T10:20:04;1.79;55.96
22917;DHT22;11624;53.250;7.456;2022-12-18T10:22:43;1.75;56.08
22917;DHT22;11624;53.250;7.456;2022-12-18T10:25:22;1.78;56.68
22917;DHT22;11624;53.250;7.456;2022-12-18T10:27:56;2.26;57.00
22917;DHT22;11624;53.250;7.456;2022-12-18T10:30:25;2.75;58.16
22917;DHT22;11624;53.250;7.456;2022-12-18T10:32:53;3.36;58.04
22917;DHT22;11624;53.250;7.456;2022-12-18T10:35:24;3.89;52.77
22917;DHT22;11624;53.250;7.456;2022-12-18T10:38:05;4.46;55.02
22917;DHT22;11624;53.250;7.456;2022-12-18T10:40:48;5.50;53.94
22917;DHT22;11624;53.250;7.456;2022-12-18T10:43:20;5.63;49.37
22917;DHT22;11624;53.250;7.456;2022-12-18T10:46:07;6.25;49.33
22917;DHT22;11624;53.250;7.456;2022-12-18T10:48:46;6.56;47.63
22917;DHT22;11624;53.250;7.456;2022-12-18T10:51:20;6.71;45.76
22917;DHT22;11624;53.250;7.456;2022-12-18T10:53:53;6.63;45.43
22917;DHT22;11624;53.250;7.456;2022-12-18T10:56:23;5.46;45.12
22917;DHT22;11624;53.250;7.456;2022-12-18T10:58:58;5.20;46.00
22917;DHT22;11624;53.250;7.456;2022-12-18T11:01:44;5.23;46.64
22917;DHT22;11624;53.250;7.456;2022-12-18T11:04:18;4.80;47.43
22917;DHT22;11624;53.250;7.456;2022-12-18T11:06:55;4.47;48.44
22917;DHT22;11624;53.250;7.456;2022-12-18T11:09:25;3.87;50.05
22917;DHT22;11624;53.250;7.456;2022-12-18T11:11:55;3.62;50.22
22917;DHT22;11624;53.250;7.456;2022-12-18T11:14:26;3.82;49.86
22917;DHT22;11624;53.250;7.456;2022-12-18T11:16:56;3.08;51.37
22917;DHT22;11624;53.250;7.456;2022-12-18T11:19:52;3.35;51.60
22917;DHT22;11624;53.250;7.456;2022-12-18T11:22:23;3.53;51.48
22917;DHT22;11624;53.250;7.456;2022-12-18T11:24:56;3.36;51.42
22917;DHT22;11624;53.250;7.456;2022-12-18T11:27:48;3.41;51.53
22917;DHT22;11624;53.250;7.456;2022-12-18T11:30:23;3.60;51.39
22917;DHT22;11624;53.250;7.456;2022-12-18T11:32:54;3.72;51.59
22917;DHT22;11624;53.250;7.456;2022-12-18T11:35:33;3.69;51.39
22917;DHT22;11624;53.250;7.456;2022-12-18T11:38:06;3.64;51.86
22917;DHT22;11624;53.250;7.456;2022-12-18T11:40:42;3.42;52.15
22917;DHT22;11624;53.250;7.456;2022-12-18T11:43:15;3.33;52.44
22917;DHT22;11624;53.250;7.456;2022-12-18T11:45:50;3.36;52.43
22917;DHT22;11624;53.250;7.456;2022-12-18T11:48:23;3.32;52.41
22917;DHT22;11624;53.250;7.456;2022-12-18T11:50:53;3.32;52.16
22917;DHT22;11624;53.250;7.456;2022-12-18T11:53:23;3.15;52.83
22917;DHT22;11624;53.250;7.456;2022-12-18T11:56:15;2.89;53.43
22917;DHT22;11624;53.250;7.456;2022-12-18T11:58:50;3.04;53.52
22917;DHT22;11624;53.250;7.456;2022-12-18T12:01:32;2.85;53.89
22917;DHT22;11624;53.250;7.456;2022-12-18T12:07:18;3.35;53.19
22917;DHT22;11624;53.250;7.456;2022-12-18T12:09:56;3.24;52.72
22917;DHT22;11624;53.250;7.456;2022-12-18T12:12:44;3.26;53.53
22917;DHT22;11624;53.250;7.456;2022-12-18T12:15:29;3.43;53.22
22917;DHT22;11624;53.250;7.456;2022-12-18T12:18:08;3.55;53.06
22917;DHT22;11624;53.250;7.456;2022-12-18T12:20:49;3.40;53.22
22917;DHT22;11624;53.250;7.456;2022-12-18T12:23:26;3.43;53.49
22917;DHT22;11624;53.250;7.456;2022-12-18T12:26:01;3.53;53.33
22917;DHT22;11624;53.250;7.456;2022-12-18T12:28:52;3.54;53.21
22917;DHT22;11624;53.250;7.456;2022-12-18T12:31:35;3.40;53.60
22917;DHT22;11624;53.250;7.456;2022-12-18T12:34:13;3.38;53.81
22917;DHT22;11624;53.250;7.456;2022-12-18T12:36:54;3.32;53.95
22917;DHT22;11624;53.250;7.456;2022-12-18T12:39:30;3.28;53.47
22917;DHT22;11624;53.250;7.456;2022-12-18T12:41:59;3.18;54.30
22917;DHT22;11624;53.250;7.456;2022-12-18T12:44:49;3.23;54.34
22917;DHT22;11624;53.250;7.456;2022-12-18T12:47:25;3.01;54.81
22917;DHT22;11624;53.250;7.456;2022-12-18T12:49:58;3.14;54.66
22917;DHT22;11624;53.250;7.456;2022-12-18T12:52:32;2.91;54.85
22917;DHT22;11624;53.250;7.456;2022-12-18T12:55:05;2.98;55.23
22917;DHT22;11624;53.250;7.456;2022-12-18T12:57:42;2.98;55.05
22917;DHT22;11624;53.250;7.456;2022-12-18T13:00:16;3.04;54.62
22917;DHT22;11624;53.250;7.456;2022-12-18T13:02:51;3.01;55.04
22917;DHT22;11624;53.250;7.456;2022-12-18T13:05:25;2.90;55.61
22917;DHT22;11624;53.250;7.456;2022-12-18T13:07:57;3.04;55.29
22917;DHT22;11624;53.250;7.456;2022-12-18T13:10:32;3.25;54.83
22917;DHT22;11624;53.250;7.456;2022-12-18T13:13:04;3.34;54.61
22917;DHT22;11624;53.250;7.456;2022-12-18T13:15:38;3.17;54.98
22917;DHT22;11624;53.250;7.456;2022-12-18T13:18:16;3.04;54.91
22917;DHT22;11624;53.250;7.456;2022-12-18T13:20:47;2.81;55.71
22917;DHT22;11624;53.250;7.456;2022-12-18T13:23:34;2.96;55.55
22917;DHT22;11624;53.250;7.456;2022-12-18T13:26:35;2.99;55.19
22917;DHT22;11624;53.250;7.456;2022-12-18T13:29:03;3.09;55.53
22917;DHT22;11624;53.250;7.456;2022-12-18T13:32:03;3.19;54.60
22917;DHT22;11624;53.250;7.456;2022-12-18T13:34:34;3.15;55.35
22917;DHT22;11624;53.250;7.456;2022-12-18T13:43:34;2.96;55.97
22917;DHT22;11624;53.250;7.456;2022-12-18T13:46:18;2.73;56.36
22917;DHT22;11624;53.250;7.456;2022-12-18T13:48:56;2.95;55.90
22917;DHT22;11624;53.250;7.456;2022-12-18T13:51:26;3.03;55.98
22917;DHT22;11624;53.250;7.456;2022-12-18T13:53:56;3.11;56.00
22917;DHT22;11624;53.250;7.456;2022-12-18T13:56:27;2.96;56.33
22917;DHT22;11624;53.250;7.456;2022-12-18T13:59:18;2.94;55.87
22917;DHT22;11624;53.250;7.456;2022-12-18T14:01:52;3.02;55.78
22917;DHT22;11624;53.250;7.456;2022-12-18T14:04:24;3.16;55.75
22917;DHT22;11624;53.250;7.456;2022-12-18T14:06:54;3.04;55.94
22917;DHT22;11624;53.250;7.456;2022-12-18T14:09:26;2.96;55.81
22917;DHT22;11624;53.250;7.456;2022-12-18T14:11:56;2.81;56.54
22917;DHT22;11624;53.250;7.456;2022-12-18T14:14:43;3.03;55.65
22917;DHT22;11624;53.250;7.456;2022-12-18T14:17:15;2.98;55.92
22917;DHT22;11624;53.250;7.456;2022-12-18T14:19:45;3.04;55.80
22917;DHT22;11624;53.250;7.456;2022-12-18T14:22:16;2.97;56.11
22917;DHT22;11624;53.250;7.456;2022-12-18T14:24:45;3.04;55.90
22917;DHT22;11624;53.250;7.456;2022-12-18T14:27:21;2.78;56.69
22917;DHT22;11624;53.250;7.456;2022-12-18T14:29:51;2.80;56.54
22917;DHT22;11624;53.250;7.456;2022-12-18T14:32:20;2.90;56.42
22917;DHT22;11624;53.250;7.456;2022-12-18T14:34:50;2.88;56.26
22917;DHT22;11624;53.250;7.456;2022-12-18T14:37:22;2.86;56.58
22917;DHT22;11624;53.250;7.456;2022-12-18T14:39:56;2.84;56.19
22917;DHT22;11624;53.250;7.456;2022-12-18T14:42:25;2.84;56.49
22917;DHT22;11624;53.250;7.456;2022-12-18T14:45:35;2.72;56.47
22917;DHT22;11624;53.250;7.456;2022-12-18T14:48:11;2.76;56.85
22917;DHT22;11624;53.250;7.456;2022-12-18T14:50:57;2.58;57.03
22917;DHT22;11624;53.250;7.456;2022-12-18T14:53:34;2.59;57.17
22917;DHT22;11624;53.250;7.456;2022-12-18T14:56:03;2.42;57.13
22917;DHT22;11624;53.250;7.456;2022-12-18T14:58:38;2.55;57.51
22917;DHT22;11624;53.250;7.456;2022-12-18T15:01:07;2.44;57.47
22917;DHT22;11624;53.250;7.456;2022-12-18T15:03:43;2.67;56.75
22917;DHT22;11624;53.250;7.456;2022-12-18T15:06:16;2.55;57.06
22917;DHT22;11624;53.250;7.456;2022-12-18T15:08:45;2.29;57.92
22917;DHT22;11624;53.250;7.456;2022-12-18T15:11:29;2.45;57.50
22917;DHT22;11624;53.250;7.456;2022-12-18T15:13:58;2.65;57.15
22917;DHT22;11624;53.250;7.456;2022-12-18T15:16:28;2.58;57.14
22917;DHT22;11624;53.250;7.456;2022-12-18T15:18:57;2.66;57.13
22917;DHT22;11624;53.250;7.456;2022-12-18T15:21:25;2.53;57.00
22917;DHT22;11624;53.250;7.456;2022-12-18T15:23:59;2.67;57.20
22917;DHT22;11624;53.250;7.456;2022-12-18T15:26:36;2.58;56.78
22917;DHT22;11624;53.250;7.456;2022-12-18T15:29:05;2.80;56.62
22917;DHT22;11624;53.250;7.456;2022-12-18T15:31:42;2.81;56.17
22917;DHT22;11624;53.250;7.456;2022-12-18T15:34:17;2.68;56.99
22917;DHT22;11624;53.250;7.456;2022-12-18T15:36:47;2.43;56.97
22917;DHT22;11624;53.250;7.456;2022-12-18T15:39:15;2.78;56.59
22917;DHT22;11624;53.250;7.456;2022-12-18T15:41:44;2.70;56.48
22917;DHT22;11624;53.250;7.456;2022-12-18T15:44:26;2.79;55.91
22917;DHT22;11624;53.250;7.456;2022-12-18T15:46:56;2.82;56.34
22917;DHT22;11624;53.250;7.456;2022-12-18T15:49:25;2.96;55.94
22917;DHT22;11624;53.250;7.456;2022-12-18T15:51:55;2.99;55.23
22917;DHT22;11624;53.250;7.456;2022-12-18T15:54:24;3.05;55.61
22917;DHT22;11624;53.250;7.456;2022-12-18T15:57:09;3.03;55.48
22917;DHT22;11624;53.250;7.456;2022-12-18T15:59:54;3.01;55.13
22917;DHT22;11624;53.250;7.456;2022-12-18T16:02:26;3.06;55.34
22917;DHT22;11624;53.250;7.456;2022-12-18T16:04:56;2.99;55.61
22917;DHT22;11624;53.250;7.456;2022-12-18T16:07:24;2.99;55.32
22917;DHT22;11624;53.250;7.456;2022-12-18T16:09:56;3.00;55.11
22917;DHT22;11624;53.250;7.456;2022-12-18T16:12:28;3.03;55.41
22917;DHT22;11624;53.250;7.456;2022-12-18T16:14:56;3.10;55.10
22917;DHT22;11624;53.250;7.456;2022-12-18T16:17:26;3.12;55.04
22917;DHT22;11624;53.250;7.456;2022-12-18T16:19:54;3.12;54.79
22917;DHT22;11624;53.250;7.456;2022-12-18T16:22:24;3.21;54.81
22917;DHT22;11624;53.250;7.456;2022-12-18T16:24:54;3.12;55.01